Time;durP1;ratioP1;P1;durP2;ratioP2;P2;SDS_P1;SDS_P2;PMS_P1;PMS_P2;Temp;Humidity;BMP_temperature;BMP_pressure;BME280_temperature;BME280_humidity;BME280_pressure;Samples;Min_cycle;Max_cycle;Signal;HPM_P1;HPM_P2
2023/04/17 00:00:15;;;;;;;42.23;38.90;;;10.10;99.90;;;;;;4933569;29;20465;-78
2023/04/17 04:33:34;;;;;;;31.67;28.30;;;9.80;99.90;;;;;;5298938;23;20949;-74
2023/04/17 04:36:00;;;;;;;33.67;30.60;;;9.80;99.90;;;;;;4914455;29;20460;-73
2023/04/17 04:38:30;;;;;;;31.73;29.03;;;9.80;99.90;;;;;;4913857;29;21026;-74
2023/04/17 04:41:00;;;;;;;31.77;28.73;;;9.70;99.90;;;;;;4913476;29;20453;-74
2023/04/17 04:43:28;;;;;;;33.03;30.33;;;9.70;99.90;;;;;;4913420;29;20465;-74
2023/04/17 04:45:55;;;;;;;30.27;27.67;;;9.70;99.90;;;;;;4913600;29;20537;-75
2023/04/17 04:48:22;;;;;;;32.97;30.07;;;9.80;99.90;;;;;;4913634;29;20459;-74
2023/04/17 04:50:51;;;;;;;30.40;27.87;;;9.80;99.90;;;;;;4913485;29;20495;-75
2023/04/17 04:53:18;;;;;;;31.03;28.07;;;9.90;99.90;;;;;;4913487;29;20466;-75
2023/04/17 04:55:44;;;;;;;32.30;29.50;;;9.80;99.90;;;;;;4913664;29;20463;-76
2023/04/17 04:58:11;;;;;;;30.83;27.97;;;9.80;99.90;;;;;;4911538;29;20545;-75
2023/04/17 05:00:38;;;;;;;31.73;28.90;;;9.70;99.90;;;;;;4912878;29;21017;-74
2023/04/17 05:03:05;;;;;;;29.50;26.93;;;9.80;99.90;;;;;;4908558;29;20481;-74
2023/04/17 05:05:32;;;;;;;32.93;30.00;;;9.90;99.90;;;;;;4913436;29;20466;-74
2023/04/17 05:08:00;;;;;;;29.87;27.27;;;9.90;99.90;;;;;;4913437;29;20609;-75
2023/04/17 05:10:26;;;;;;;31.87;28.70;;;9.90;99.90;;;;;;4913543;29;20490;-77
2023/04/17 05:12:53;;;;;;;32.10;29.00;;;10.00;99.90;;;;;;4913548;29;20953;-74
2023/04/17 05:48:12;;;;;;;32.13;29.53;;;10.10;99.90;;;;;;5116958;23;20494;-77
2023/04/17 05:50:38;;;;;;;32.03;29.30;;;10.10;99.90;;;;;;4912118;29;20512;-76
2023/04/17 05:53:05;;;;;;;32.80;29.60;;;10.20;99.90;;;;;;4911671;29;20909;-78
2023/04/17 05:55:32;;;;;;;30.87;28.37;;;10.20;99.90;;;;;;4911847;29;20944;-79
2023/04/17 05:57:59;;;;;;;32.00;29.07;;;10.20;99.90;;;;;;4904173;29;20865;-77
2023/04/17 06:00:26;;;;;;;35.50;32.43;;;10.20;99.90;;;;;;4897065;29;20529;-76
2023/04/17 06:02:53;;;;;;;32.87;30.07;;;10.10;99.90;;;;;;4912413;29;20581;-78
2023/04/17 06:05:21;;;;;;;34.53;31.77;;;10.10;99.90;;;;;;4903713;29;20466;-80
2023/04/17 06:07:49;;;;;;;35.03;31.80;;;10.10;99.90;;;;;;4893915;29;20475;-76
2023/04/17 06:10:15;;;;;;;34.30;31.33;;;10.10;99.90;;;;;;4893603;29;20487;-78
2023/04/17 06:12:43;;;;;;;33.60;30.97;;;10.10;99.90;;;;;;4893968;29;20487;-77
2023/04/17 06:15:10;;;;;;;33.17;30.57;;;10.10;99.90;;;;;;4912560;29;20462;-78
2023/04/17 06:17:37;;;;;;;36.63;33.47;;;10.10;99.90;;;;;;4912699;29;20465;-78
2023/04/17 06:20:08;;;;;;;36.20;33.20;;;10.20;99.90;;;;;;4912477;29;20497;-77
2023/04/17 06:22:36;;;;;;;34.13;31.30;;;10.20;99.90;;;;;;4912715;29;20461;-76
2023/04/17 06:25:03;;;;;;;33.27;30.63;;;10.20;99.90;;;;;;4912471;29;20470;-76
2023/04/17 06:27:30;;;;;;;32.70;30.10;;;10.20;99.90;;;;;;4912175;29;20822;-76
2023/04/17 06:29:57;;;;;;;35.03;32.03;;;10.10;99.90;;;;;;4908760;29;20501;-76
2023/04/17 06:32:24;;;;;;;33.87;31.30;;;10.20;99.90;;;;;;4893361;29;20490;-79
2023/04/17 06:34:50;;;;;;;33.90;31.30;;;10.10;99.90;;;;;;4893450;29;20463;-75
2023/04/17 06:37:17;;;;;;;34.23;31.23;;;10.10;99.90;;;;;;4893327;29;20503;-75
2023/04/17 06:39:45;;;;;;;35.27;32.47;;;10.10;99.90;;;;;;4893137;29;20714;-75
2023/04/17 06:42:15;;;;;;;36.23;33.00;;;10.10;99.90;;;;;;4893423;29;20455;-76
2023/04/17 06:44:41;;;;;;;36.17;32.83;;;10.00;99.90;;;;;;4892914;29;20933;-76
2023/04/17 06:47:08;;;;;;;35.47;32.37;;;10.00;99.90;;;;;;4892562;29;20517;-77
2023/04/17 06:49:35;;;;;;;36.77;33.37;;;10.00;99.90;;;;;;4892723;29;20454;-75
2023/04/17 06:52:01;;;;;;;36.43;33.33;;;10.00;99.90;;;;;;4892548;29;20455;-78
2023/04/17 06:54:28;;;;;;;37.70;34.07;;;9.90;99.90;;;;;;4892722;29;20894;-77
2023/04/17 06:56:56;;;;;;;36.40;33.50;;;10.00;99.90;;;;;;4892572;29;20516;-75
2023/04/17 06:59:23;;;;;;;38.10;34.17;;;10.10;99.90;;;;;;4892732;29;20467;-76
2023/04/17 07:01:49;;;;;;;38.60;35.27;;;10.20;99.90;;;;;;4892870;29;20459;-76
2023/04/17 07:04:16;;;;;;;40.37;37.07;;;10.10;99.90;;;;;;4896124;29;20462;-75
2023/04/17 07:06:43;;;;;;;40.03;36.73;;;10.20;99.90;;;;;;4914749;29;20468;-76
2023/04/17 07:09:10;;;;;;;40.87;37.47;;;10.20;99.90;;;;;;4914745;29;20540;-75
2023/04/17 07:11:37;;;;;;;41.00;37.37;;;10.20;99.90;;;;;;4915254;29;20494;-76
2023/04/17 07:14:05;;;;;;;41.37;37.57;;;10.20;99.90;;;;;;4915246;29;20453;-76
2023/04/17 07:16:32;;;;;;;41.83;38.37;;;10.30;99.90;;;;;;4914909;29;20949;-76
2023/04/17 07:18:59;;;;;;;42.67;39.07;;;10.30;99.90;;;;;;4914847;29;20458;-76
2023/04/17 07:21:26;;;;;;;44.50;40.80;;;10.50;99.90;;;;;;4914883;29;20456;-77
2023/04/17 07:23:53;;;;;;;44.70;41.10;;;10.40;99.90;;;;;;4915146;29;20890;-80
2023/04/17 07:26:20;;;;;;;44.40;40.77;;;10.50;99.90;;;;;;4915228;29;20450;-78
2023/04/17 07:28:47;;;;;;;43.47;40.27;;;10.70;99.90;;;;;;4914569;29;20457;-80
2023/04/17 07:31:15;;;;;;;43.83;40.30;;;10.80;99.90;;;;;;4914583;29;20506;-80
2023/04/17 07:33:41;;;;;;;43.27;39.87;;;10.70;99.90;;;;;;4914612;29;20469;-78
2023/04/17 07:36:10;;;;;;;43.77;40.60;;;10.70;99.90;;;;;;4914859;29;20501;-81
2023/04/17 07:38:37;;;;;;;44.43;41.00;;;10.90;99.90;;;;;;4914629;29;20490;-77
2023/04/17 07:41:04;;;;;;;44.90;41.20;;;10.90;99.90;;;;;;4912798;29;20489;-77
2023/04/17 07:43:31;;;;;;;43.97;40.67;;;10.90;99.90;;;;;;4914231;29;20455;-73
2023/04/17 07:45:58;;;;;;;45.03;41.77;;;10.90;99.90;;;;;;4913798;29;20478;-73
2023/04/17 13:59:02;;;;;;;23.53;22.27;;;12.80;99.90;;;;;;5328347;23;20490;-80
2023/04/17 14:01:29;;;;;;;21.70;20.60;;;12.70;99.90;;;;;;4912916;29;20454;-80
2023/04/17 14:03:59;;;;;;;18.33;17.33;;;12.60;99.90;;;;;;4913157;29;21007;-79
2023/04/17 14:06:26;;;;;;;18.30;17.10;;;12.70;99.90;;;;;;4913219;29;20476;-79
2023/04/17 14:08:53;;;;;;;15.97;15.17;;;12.80;99.90;;;;;;4913546;29;20462;-77
2023/04/17 14:11:20;;;;;;;15.10;14.30;;;12.80;99.90;;;;;;4912213;29;20498;-79
2023/04/17 14:13:47;;;;;;;15.50;14.70;;;13.00;99.90;;;;;;4912787;29;20718;-80
2023/04/17 14:16:15;;;;;;;15.47;14.40;;;13.10;99.90;;;;;;4916814;29;20513;-80
2023/04/17 14:18:41;;;;;;;14.80;13.97;;;13.40;99.90;;;;;;4916655;29;20466;-80
2023/04/17 14:21:08;;;;;;;16.30;15.50;;;13.60;99.90;;;;;;4916996;29;20550;-82
2023/04/17 14:23:35;;;;;;;13.93;13.00;;;13.90;99.90;;;;;;4916581;29;20462;-83
2023/04/17 14:26:02;;;;;;;15.10;14.10;;;14.00;99.90;;;;;;4916340;29;20458;-83
2023/04/17 14:28:28;;;;;;;13.83;13.13;;;14.10;99.90;;;;;;4916028;29;20561;-83
2023/04/17 14:30:55;;;;;;;14.63;13.83;;;14.10;99.90;;;;;;4916680;29;20987;-84
2023/04/17 14:33:23;;;;;;;14.87;14.00;;;14.20;99.90;;;;;;4916298;29;20529;-84
2023/04/17 14:35:52;;;;;;;14.63;13.83;;;14.10;99.90;;;;;;4914436;29;20473;-83
2023/04/17 14:38:18;;;;;;;14.00;13.30;;;14.00;99.90;;;;;;4916196;29;20556;-81
2023/04/17 14:40:45;;;;;;;14.23;13.33;;;14.10;99.90;;;;;;4916330;29;20450;-81
2023/04/17 14:43:12;;;;;;;15.20;14.40;;;14.30;99.90;;;;;;4916310;29;20552;-80
2023/04/17 14:45:39;;;;;;;13.63;12.80;;;14.60;99.90;;;;;;4916034;29;20458;-78
2023/04/17 14:48:06;;;;;;;14.50;13.53;;;14.70;99.90;;;;;;4915785;29;20466;-79
2023/04/17 14:50:34;;;;;;;14.53;13.70;;;14.40;99.90;;;;;;4915424;29;20466;-80
2023/04/17 14:53:00;;;;;;;14.23;13.43;;;14.60;99.90;;;;;;4915255;29;20450;-81
2023/04/17 14:55:28;;;;;;;15.40;14.50;;;14.60;99.90;;;;;;4915440;29;20454;-80
2023/04/17 14:57:55;;;;;;;15.03;13.90;;;14.70;99.90;;;;;;4928969;29;20476;-80
2023/04/17 15:00:22;;;;;;;14.90;14.00;;;14.70;99.90;;;;;;4932817;29;20489;-80
2023/04/17 15:02:49;;;;;;;15.30;14.50;;;14.70;99.90;;;;;;4934587;29;20484;-80
2023/04/17 15:05:18;;;;;;;14.87;14.17;;;14.60;99.90;;;;;;4934686;29;20951;-79
2023/04/17 15:07:46;;;;;;;15.40;14.33;;;14.40;99.90;;;;;;4934785;29;20524;-78
2023/04/17 15:10:14;;;;;;;15.63;14.83;;;14.20;99.90;;;;;;4934736;29;20521;-79
2023/04/17 15:12:40;;;;;;;15.23;14.23;;;14.30;99.90;;;;;;4934908;29;20492;-78
2023/04/17 15:15:08;;;;;;;14.80;14.00;;;14.40;99.90;;;;;;4934922;29;20815;-78
2023/04/17 15:17:36;;;;;;;13.93;13.23;;;14.50;99.90;;;;;;4934499;29;20461;-79
2023/04/17 15:20:03;;;;;;;13.50;12.77;;;14.80;99.90;;;;;;4934439;29;20746;-79
2023/04/17 15:22:30;;;;;;;13.90;13.10;;;14.90;99.90;;;;;;4934279;29;20453;-79
2023/04/17 15:24:58;;;;;;;14.70;13.90;;;14.80;99.90;;;;;;4934156;29;20986;-78
2023/04/17 15:27:25;;;;;;;14.00;13.30;;;15.00;99.90;;;;;;4933512;29;20520;-71
2023/04/17 15:29:51;;;;;;;14.60;13.90;;;15.10;99.90;;;;;;4934282;29;20449;-72
2023/04/17 15:32:18;;;;;;;15.87;14.97;;;15.10;99.90;;;;;;4933962;29;21098;-73
2023/04/17 15:34:45;;;;;;;14.80;13.83;;;14.90;99.90;;;;;;4934065;29;20457;-73
2023/04/17 15:37:11;;;;;;;13.90;13.10;;;14.90;99.90;;;;;;4934169;29;20462;-72
2023/04/17 15:39:39;;;;;;;13.20;12.40;;;14.80;99.90;;;;;;4934317;29;20466;-73
2023/04/17 15:42:08;;;;;;;13.97;13.37;;;14.60;99.90;;;;;;4934040;29;20456;-74
2023/04/17 15:44:36;;;;;;;15.87;14.87;;;14.40;99.90;;;;;;4933756;29;20947;-73
2023/04/17 15:47:03;;;;;;;16.30;15.30;;;14.10;99.90;;;;;;4929349;29;20745;-73
2023/04/17 15:49:30;;;;;;;15.27;14.30;;;14.00;99.90;;;;;;4904862;29;20515;-73
2023/04/17 15:51:56;;;;;;;14.53;13.67;;;14.00;99.90;;;;;;4904159;29;20497;-72
2023/04/17 15:54:23;;;;;;;15.57;14.70;;;13.90;99.90;;;;;;4914944;29;20596;-73
2023/04/17 15:56:50;;;;;;;14.97;14.27;;;13.90;99.90;;;;;;4901638;29;20483;-72
2023/04/17 15:59:18;;;;;;;15.00;14.20;;;14.00;99.90;;;;;;4895478;29;20772;-73
2023/04/17 16:01:46;;;;;;;13.57;12.90;;;13.90;99.90;;;;;;4895968;29;20459;-72
2023/04/17 16:04:13;;;;;;;14.13;13.40;;;13.90;99.90;;;;;;4899664;29;20538;-72
2023/04/17 16:06:40;;;;;;;15.63;14.93;;;14.00;99.90;;;;;;4914950;29;20963;-74
2023/04/17 16:09:07;;;;;;;14.43;13.73;;;14.10;99.90;;;;;;4914699;29;20965;-73
2023/04/17 16:11:33;;;;;;;14.03;13.33;;;14.10;99.90;;;;;;4914452;29;20858;-74
2023/04/17 16:14:00;;;;;;;12.90;12.10;;;14.00;99.90;;;;;;4914402;29;20458;-74
2023/04/17 16:16:28;;;;;;;13.47;12.77;;;13.70;99.90;;;;;;4914608;29;20827;-73
2023/04/17 16:18:55;;;;;;;15.43;14.60;;;13.60;99.90;;;;;;4914634;29;20517;-73
2023/04/17 16:21:21;;;;;;;14.67;13.80;;;13.60;99.90;;;;;;4909747;29;20810;-73
2023/04/17 16:23:48;;;;;;;14.40;13.70;;;13.70;99.90;;;;;;4895472;29;20452;-73
2023/04/17 16:26:15;;;;;;;13.03;12.43;;;13.70;99.90;;;;;;4895575;29;20459;-73
2023/04/17 16:28:42;;;;;;;14.97;14.23;;;13.70;99.90;;;;;;4895502;29;20534;-72
2023/04/17 16:31:09;;;;;;;14.47;13.67;;;13.70;99.90;;;;;;4889916;29;20491;-74
2023/04/17 16:33:38;;;;;;;15.27;14.40;;;13.80;99.90;;;;;;4894658;29;20804;-73
2023/04/17 16:36:05;;;;;;;12.47;11.87;;;13.80;99.90;;;;;;4894889;29;20470;-73
2023/04/17 16:38:34;;;;;;;13.60;12.80;;;13.70;99.90;;;;;;4894398;29;20927;-73
2023/04/17 16:41:02;;;;;;;12.40;11.80;;;13.70;99.90;;;;;;4894603;29;20729;-73
2023/04/17 16:43:29;;;;;;;13.87;13.17;;;13.60;99.90;;;;;;4894577;29;20486;-73
2023/04/17 16:45:55;;;;;;;12.63;12.03;;;13.40;99.90;;;;;;4894854;29;20460;-74
2023/04/17 16:48:22;;;;;;;12.70;12.20;;;13.50;99.90;;;;;;4894558;29;20455;-75
2023/04/17 16:50:50;;;;;;;14.07;13.33;;;13.70;99.90;;;;;;4894641;29;20459;-73
2023/04/17 16:53:18;;;;;;;13.07;12.33;;;13.70;99.90;;;;;;4894436;29;20487;-74
2023/04/17 16:55:45;;;;;;;13.17;12.47;;;13.50;99.90;;;;;;4901357;29;21052;-74
2023/04/17 16:58:11;;;;;;;12.97;12.37;;;13.50;99.90;;;;;;4913548;29;20478;-75
2023/04/17 17:00:38;;;;;;;12.97;12.37;;;13.40;99.90;;;;;;4913498;29;20482;-74
2023/04/17 17:03:05;;;;;;;13.63;12.97;;;13.50;99.90;;;;;;4913116;29;20486;-75
2023/04/17 17:05:31;;;;;;;13.30;12.47;;;13.50;99.90;;;;;;4912994;29;20945;-75
2023/04/17 17:07:59;;;;;;;14.20;13.50;;;13.40;99.90;;;;;;4913548;29;20462;-74
2023/04/17 17:10:26;;;;;;;13.27;12.57;;;13.40;99.90;;;;;;4913691;29;20781;-74
2023/04/17 17:12:53;;;;;;;12.80;12.20;;;13.20;99.90;;;;;;4913734;29;20568;-75
2023/04/17 17:15:19;;;;;;;15.23;14.43;;;13.00;99.90;;;;;;4913332;29;20526;-74
2023/04/17 17:17:46;;;;;;;14.00;13.40;;;13.10;99.90;;;;;;4911254;29;20459;-74
2023/04/17 17:20:13;;;;;;;14.43;13.70;;;13.10;99.90;;;;;;4911572;29;20462;-73
2023/04/17 17:22:39;;;;;;;13.27;12.63;;;13.00;99.90;;;;;;4912708;29;20463;-73
2023/04/17 17:25:08;;;;;;;13.80;13.10;;;13.10;99.90;;;;;;4912785;29;20459;-73
2023/04/17 17:27:35;;;;;;;14.10;13.50;;;13.10;99.90;;;;;;4912541;29;20450;-73
2023/04/17 17:30:02;;;;;;;13.50;12.73;;;13.20;99.90;;;;;;4912658;29;20458;-73
2023/04/17 17:32:29;;;;;;;14.90;14.20;;;13.20;99.90;;;;;;4907068;29;20505;-74
2023/04/17 17:34:57;;;;;;;14.77;14.10;;;13.10;99.90;;;;;;4912804;29;20513;-75
2023/04/17 17:37:24;;;;;;;14.23;13.47;;;13.10;99.90;;;;;;4912930;29;20458;-73
2023/04/17 17:39:51;;;;;;;13.07;12.47;;;13.10;99.90;;;;;;4912472;29;20861;-72
2023/04/17 17:42:19;;;;;;;13.53;12.93;;;13.00;99.90;;;;;;4912488;29;20474;-73
2023/04/17 17:44:45;;;;;;;13.93;13.23;;;12.90;99.90;;;;;;4912226;29;20944;-72
2023/04/17 17:47:12;;;;;;;13.70;13.03;;;12.80;99.90;;;;;;4912728;29;20518;-73
2023/04/17 17:49:38;;;;;;;13.17;12.50;;;12.70;99.90;;;;;;4911663;29;20474;-73
2023/04/17 17:52:05;;;;;;;12.53;11.93;;;12.80;99.90;;;;;;4912253;29;20498;-73
2023/04/17 17:54:35;;;;;;;12.27;11.67;;;12.70;99.90;;;;;;4912135;29;20462;-72
2023/04/17 17:57:02;;;;;;;12.03;11.63;;;12.60;99.90;;;;;;4912104;29;20566;-73
2023/04/17 17:59:30;;;;;;;12.93;12.43;;;12.50;99.90;;;;;;4911886;29;20489;-73
2023/04/17 18:01:57;;;;;;;12.50;11.90;;;12.60;99.90;;;;;;4912376;29;20457;-73
2023/04/17 18:04:24;;;;;;;13.27;12.77;;;12.60;99.90;;;;;;4912743;29;20824;-73
2023/04/17 18:06:50;;;;;;;13.80;13.20;;;12.50;99.90;;;;;;4912319;29;20458;-73
2023/04/17 18:09:17;;;;;;;13.37;12.77;;;12.50;99.90;;;;;;4911834;29;20458;-73
2023/04/17 18:11:44;;;;;;;12.03;11.53;;;12.40;99.90;;;;;;4911559;29;20579;-73
2023/04/17 18:14:11;;;;;;;12.80;12.20;;;12.40;99.90;;;;;;4912339;29;20466;-75
2023/04/17 18:16:39;;;;;;;13.77;13.07;;;12.30;99.90;;;;;;4912055;29;20466;-73
2023/04/17 18:19:05;;;;;;;13.10;12.30;;;12.30;99.90;;;;;;4912208;29;20832;-73
2023/04/17 18:21:32;;;;;;;12.80;11.93;;;12.30;99.90;;;;;;4911885;29;20457;-74
2023/04/17 18:24:00;;;;;;;13.33;12.73;;;12.10;99.90;;;;;;4911988;29;20550;-74
2023/04/17 18:26:27;;;;;;;12.87;12.27;;;12.10;99.90;;;;;;4911878;29;20541;-74
2023/04/17 18:28:53;;;;;;;12.73;12.03;;;12.20;99.90;;;;;;4912196;29;20455;-74
2023/04/17 18:31:21;;;;;;;13.83;13.33;;;12.20;99.90;;;;;;4911896;29;20466;-74
2023/04/17 18:33:49;;;;;;;11.50;11.00;;;12.20;99.90;;;;;;4911552;29;20487;-74
2023/04/17 18:36:16;;;;;;;12.60;12.10;;;12.10;99.90;;;;;;4911612;29;20458;-74
2023/04/17 18:38:43;;;;;;;13.97;13.30;;;12.10;99.90;;;;;;4911414;29;20466;-74
2023/04/17 18:41:09;;;;;;;13.00;12.50;;;12.20;99.90;;;;;;4912159;29;20832;-72
2023/04/17 18:43:36;;;;;;;12.97;12.47;;;12.10;99.90;;;;;;4911675;29;20904;-74
2023/04/17 18:46:06;;;;;;;11.57;11.17;;;12.10;99.90;;;;;;4911734;29;20713;-74
2023/04/17 18:48:32;;;;;;;12.77;12.23;;;12.00;99.90;;;;;;4911552;29;20877;-73
2023/04/17 18:51:10;;;;;;;13.33;12.83;;;11.90;99.90;;;;;;4911765;29;20458;-73
2023/04/17 18:53:36;;;;;;;11.97;11.57;;;11.80;99.90;;;;;;4911790;29;20652;-73
2023/04/17 18:56:03;;;;;;;12.40;11.90;;;11.90;99.90;;;;;;4911651;29;20461;-74
2023/04/17 18:58:30;;;;;;;13.70;13.00;;;11.80;99.90;;;;;;4911459;29;20497;-73
2023/04/17 19:00:56;;;;;;;12.57;11.97;;;11.80;99.90;;;;;;4919829;29;20811;-73
2023/04/17 19:03:23;;;;;;;14.40;13.80;;;11.70;99.90;;;;;;4934655;29;20816;-73
2023/04/17 19:05:50;;;;;;;13.17;12.57;;;11.70;99.90;;;;;;4928699;29;20493;-72
2023/04/17 19:08:18;;;;;;;13.07;12.57;;;11.60;99.90;;;;;;4933841;29;20461;-74
2023/04/17 19:10:44;;;;;;;13.20;12.60;;;11.60;99.90;;;;;;4933393;29;20453;-74
2023/04/17 19:13:11;;;;;;;12.60;12.10;;;11.50;99.90;;;;;;4933926;29;20845;-72
2023/04/17 19:15:38;;;;;;;13.27;12.77;;;11.40;99.90;;;;;;4933918;29;20501;-74
2023/04/17 19:18:07;;;;;;;13.60;13.00;;;11.40;99.90;;;;;;4934075;29;20464;-73
2023/04/17 19:20:34;;;;;;;13.80;13.20;;;11.40;99.90;;;;;;4933829;29;20467;-73
2023/04/17 19:23:01;;;;;;;14.87;14.27;;;11.30;99.90;;;;;;4933716;29;20469;-73
2023/04/17 19:25:29;;;;;;;13.90;13.40;;;11.30;99.90;;;;;;4933310;29;20509;-73
2023/04/17 19:27:56;;;;;;;13.87;13.17;;;11.20;99.90;;;;;;4933705;29;20461;-73
2023/04/17 19:30:23;;;;;;;14.00;13.37;;;11.20;99.90;;;;;;4933883;29;20458;-73
2023/04/17 19:32:50;;;;;;;13.87;13.27;;;11.30;99.90;;;;;;4933159;29;20497;-73
2023/04/17 19:35:16;;;;;;;14.90;14.17;;;11.20;99.90;;;;;;4933273;29;20977;-73
2023/04/17 19:37:43;;;;;;;13.90;13.30;;;11.10;99.90;;;;;;4932987;29;20473;-75
2023/04/17 19:40:11;;;;;;;17.13;16.13;;;11.00;99.90;;;;;;4933907;29;20465;-73
2023/04/17 19:42:39;;;;;;;16.40;15.57;;;11.00;99.90;;;;;;4933670;29;20556;-74
2023/04/17 19:45:07;;;;;;;15.07;14.47;;;10.90;99.90;;;;;;4933621;29;20453;-73
2023/04/17 19:47:33;;;;;;;15.70;14.73;;;10.90;99.90;;;;;;4933288;29;20574;-73
2023/04/17 19:50:00;;;;;;;15.60;14.60;;;10.90;99.90;;;;;;4933455;29;20460;-73
2023/04/17 19:52:27;;;;;;;16.63;15.70;;;10.90;99.90;;;;;;4933370;29;20485;-73
2023/04/17 19:54:53;;;;;;;16.00;15.30;;;10.80;99.90;;;;;;4933561;29;20825;-73
2023/04/17 19:57:21;;;;;;;14.57;13.90;;;10.80;99.90;;;;;;4933206;29;20890;-73
2023/04/17 19:59:49;;;;;;;15.27;14.57;;;10.90;99.90;;;;;;4931679;29;20496;-74
2023/04/17 20:02:19;;;;;;;15.07;14.27;;;10.70;99.90;;;;;;4933847;29;20516;-74
2023/04/17 20:04:46;;;;;;;15.30;14.53;;;10.80;99.90;;;;;;4931704;29;20458;-73
2023/04/17 20:07:13;;;;;;;17.43;16.53;;;10.80;99.90;;;;;;4933594;29;20461;-73
2023/04/17 20:09:40;;;;;;;17.83;16.93;;;10.70;99.90;;;;;;4933628;29;20457;-73
2023/04/17 20:12:07;;;;;;;17.30;16.30;;;10.70;99.90;;;;;;4927842;29;20825;-73
2023/04/17 20:14:34;;;;;;;17.30;16.40;;;10.60;99.90;;;;;;4933293;29;20528;-74
2023/04/17 20:17:02;;;;;;;17.40;16.50;;;10.60;99.90;;;;;;4933611;29;20472;-72
2023/04/17 20:19:29;;;;;;;18.57;17.57;;;10.60;99.90;;;;;;4926686;29;20507;-73
2023/04/17 20:21:55;;;;;;;18.00;16.63;;;10.60;99.90;;;;;;4902063;29;20507;-74
2023/04/17 20:24:22;;;;;;;18.17;17.13;;;10.50;99.90;;;;;;4905109;29;20857;-73
2023/04/17 20:26:49;;;;;;;18.13;17.23;;;10.60;99.90;;;;;;4904572;29;21013;-73
2023/04/17 20:29:16;;;;;;;18.30;17.30;;;10.60;99.90;;;;;;4902680;29;20586;-73
2023/04/17 20:31:42;;;;;;;18.27;17.20;;;10.60;99.90;;;;;;4904265;29;20453;-74
2023/04/17 20:34:10;;;;;;;16.93;16.03;;;10.60;99.90;;;;;;4905061;29;20901;-73
2023/04/17 20:36:37;;;;;;;19.13;17.90;;;10.60;99.90;;;;;;4903316;29;20479;-73
2023/04/17 20:39:04;;;;;;;17.63;16.63;;;10.60;99.90;;;;;;4904612;29;20460;-74
2023/04/17 20:41:31;;;;;;;19.50;18.40;;;10.70;99.90;;;;;;4905649;29;20503;-76
2023/04/17 20:43:58;;;;;;;17.67;16.67;;;10.70;99.90;;;;;;4905692;29;20454;-76
2023/04/17 20:46:25;;;;;;;18.10;17.10;;;10.60;99.90;;;;;;4905636;29;20447;-75
2023/04/17 20:48:52;;;;;;;20.00;18.90;;;10.70;99.90;;;;;;4903491;29;20553;-76
2023/04/17 20:51:23;;;;;;;19.23;18.00;;;10.60;99.90;;;;;;4906021;29;20477;-75
2023/04/17 20:53:50;;;;;;;18.90;17.90;;;10.70;99.90;;;;;;4905534;29;20493;-77
2023/04/17 20:56:17;;;;;;;18.67;17.57;;;10.60;99.90;;;;;;4903633;29;20462;-75
2023/04/17 20:58:44;;;;;;;19.63;18.37;;;10.60;99.90;;;;;;4904908;29;20864;-74
2023/04/17 21:01:10;;;;;;;20.60;19.30;;;10.50;99.90;;;;;;4906200;29;20490;-76
2023/04/17 21:03:37;;;;;;;20.73;19.30;;;10.50;99.90;;;;;;4903372;29;20444;-76
2023/04/17 21:06:04;;;;;;;20.30;18.90;;;10.50;99.90;;;;;;4904431;29;20454;-77
2023/04/17 21:08:32;;;;;;;19.27;18.07;;;10.40;99.90;;;;;;4904341;29;20519;-75
2023/04/17 21:10:59;;;;;;;20.50;19.27;;;10.40;99.90;;;;;;4902930;29;20531;-76
2023/04/17 21:13:26;;;;;;;21.20;19.80;;;10.30;99.90;;;;;;4903926;29;20486;-75
2023/04/17 21:15:53;;;;;;;22.93;21.33;;;10.30;99.90;;;;;;4904695;29;20922;-76
2023/04/17 21:18:19;;;;;;;20.30;18.90;;;10.70;99.90;;;;;;4902905;29;20455;-76
2023/04/17 21:20:46;;;;;;;20.90;19.50;;;10.40;99.90;;;;;;4903930;29;20864;-75
2023/04/17 21:23:13;;;;;;;21.47;19.97;;;10.40;99.90;;;;;;4904586;29;20519;-75
2023/04/17 21:25:41;;;;;;;22.97;21.47;;;10.40;99.90;;;;;;4903168;29;20482;-76
2023/04/17 21:28:08;;;;;;;23.90;22.10;;;10.50;99.90;;;;;;4903869;29;20458;-77
2023/04/17 21:30:36;;;;;;;23.10;21.30;;;10.40;99.90;;;;;;4904408;29;20451;-76
2023/04/17 21:33:03;;;;;;;24.77;22.87;;;10.50;99.90;;;;;;4902659;29;21068;-77
2023/04/17 21:35:30;;;;;;;24.70;22.73;;;10.50;99.90;;;;;;4903242;29;20455;-77
2023/04/17 21:37:56;;;;;;;23.73;21.90;;;10.50;99.90;;;;;;4904681;29;20447;-75
2023/04/17 21:40:24;;;;;;;25.40;23.47;;;10.50;99.90;;;;;;4903133;29;20451;-79
2023/04/17 21:42:52;;;;;;;23.93;22.13;;;10.50;99.90;;;;;;4902891;29;20464;-76
2023/04/17 21:45:19;;;;;;;24.07;22.40;;;10.50;99.90;;;;;;4903987;29;20447;-77
2023/04/17 21:47:46;;;;;;;26.33;24.40;;;10.60;99.90;;;;;;4902598;29;20506;-75
2023/04/17 21:50:13;;;;;;;24.27;22.57;;;10.60;99.90;;;;;;4901839;29;20450;-76
2023/04/17 21:52:40;;;;;;;25.47;23.57;;;10.60;99.90;;;;;;4903700;29;20447;-77
2023/04/17 21:55:07;;;;;;;23.20;21.40;;;10.60;99.90;;;;;;4902628;29;20458;-76
2023/04/17 21:57:34;;;;;;;24.70;22.90;;;10.60;99.90;;;;;;4904146;29;20470;-77
2023/04/17 22:00:04;;;;;;;24.60;22.80;;;10.60;99.90;;;;;;4912166;29;20549;-76
2023/04/17 22:02:31;;;;;;;26.23;24.13;;;10.50;99.90;;;;;;4912538;29;20530;-75
2023/04/17 22:04:57;;;;;;;24.83;23.03;;;10.50;99.90;;;;;;4912495;29;20509;-75
2023/04/17 22:07:24;;;;;;;22.97;21.27;;;10.50;99.90;;;;;;4912805;29;20509;-76
2023/04/17 22:09:51;;;;;;;25.30;23.30;;;10.50;99.90;;;;;;4912423;29;20459;-75
2023/04/17 22:12:19;;;;;;;26.80;24.70;;;10.50;99.90;;;;;;4912377;29;20465;-75
2023/04/17 22:14:46;;;;;;;23.27;21.37;;;10.50;99.90;;;;;;4912369;29;21135;-75
2023/04/17 22:17:15;;;;;;;27.30;25.30;;;10.40;99.90;;;;;;4912369;29;20487;-76
2023/04/17 22:19:41;;;;;;;25.73;23.63;;;10.40;99.90;;;;;;4912469;29;20451;-75
2023/04/17 22:22:08;;;;;;;26.60;24.20;;;10.40;99.90;;;;;;4912639;29;20458;-75
2023/04/17 22:24:35;;;;;;;25.47;23.60;;;10.40;99.90;;;;;;4912269;29;20458;-75
2023/04/17 22:27:02;;;;;;;24.07;22.13;;;10.40;99.90;;;;;;4912173;29;20522;-74
2023/04/17 22:29:28;;;;;;;25.10;23.20;;;10.50;99.90;;;;;;4912353;29;20466;-74
2023/04/17 22:31:55;;;;;;;25.77;23.80;;;10.40;99.90;;;;;;4912545;29;20945;-74
2023/04/17 22:34:23;;;;;;;25.47;23.27;;;10.40;99.90;;;;;;4912363;29;20500;-75
2023/04/17 22:36:50;;;;;;;27.07;25.07;;;10.40;99.90;;;;;;4915332;29;20545;-75
2023/04/17 22:39:17;;;;;;;25.67;23.57;;;10.50;99.90;;;;;;4916165;29;20461;-76
2023/04/17 22:41:43;;;;;;;25.00;23.00;;;10.40;99.90;;;;;;4915981;29;20510;-76
2023/04/17 22:44:10;;;;;;;27.20;24.87;;;10.50;99.90;;;;;;4916214;29;20779;-76
2023/04/17 22:46:37;;;;;;;26.83;24.90;;;10.40;99.90;;;;;;4915915;29;20469;-76
2023/04/17 22:49:04;;;;;;;26.70;24.70;;;10.50;99.90;;;;;;4915871;29;20529;-75
2023/04/17 22:51:33;;;;;;;25.43;23.63;;;10.60;99.90;;;;;;4915947;29;20458;-76
2023/04/17 22:54:00;;;;;;;24.23;22.40;;;10.50;99.90;;;;;;4915676;29;20867;-76
2023/04/17 22:56:26;;;;;;;26.60;24.60;;;10.50;99.90;;;;;;4913970;29;20458;-76
2023/04/17 22:58:53;;;;;;;27.60;25.50;;;10.50;99.90;;;;;;4915891;29;20477;-74
2023/04/17 23:01:20;;;;;;;26.67;24.70;;;10.50;99.90;;;;;;4915454;29;20486;-75
2023/04/17 23:03:46;;;;;;;26.07;23.90;;;10.60;99.90;;;;;;4913800;29;20454;-75
2023/04/17 23:06:13;;;;;;;24.57;22.77;;;10.50;99.90;;;;;;4915490;29;20470;-76
2023/04/17 23:08:41;;;;;;;26.87;24.93;;;10.60;99.90;;;;;;4915722;29;20946;-76
2023/04/17 23:11:08;;;;;;;25.60;23.40;;;10.50;99.90;;;;;;4915633;29;20880;-76
2023/04/17 23:13:35;;;;;;;26.17;24.10;;;10.50;99.90;;;;;;4915150;29;20486;-77
2023/04/17 23:16:02;;;;;;;24.30;22.47;;;10.50;99.90;;;;;;4915466;29;20462;-75
2023/04/17 23:18:28;;;;;;;25.93;23.97;;;10.50;99.90;;;;;;4915479;29;20454;-76
2023/04/17 23:20:55;;;;;;;26.60;24.60;;;10.70;99.90;;;;;;4915675;29;20501;-76
2023/04/17 23:23:22;;;;;;;27.30;25.27;;;10.60;99.90;;;;;;4913622;29;20473;-76
2023/04/17 23:25:50;;;;;;;25.93;24.00;;;10.60;99.90;;;;;;4915158;29;20518;-76
2023/04/17 23:28:17;;;;;;;25.17;23.17;;;10.60;99.90;;;;;;4915225;29;20517;-76
2023/04/17 23:30:44;;;;;;;25.23;22.83;;;10.70;99.90;;;;;;4913566;29;20462;-77
2023/04/17 23:33:10;;;;;;;24.27;22.57;;;10.70;99.90;;;;;;4915248;29;20465;-76
2023/04/17 23:35:37;;;;;;;25.33;23.20;;;10.70;99.90;;;;;;4915224;29;20463;-75
2023/04/17 23:38:04;;;;;;;23.60;21.90;;;10.60;99.90;;;;;;4915055;29;20499;-74
2023/04/17 23:40:31;;;;;;;22.73;21.13;;;10.60;99.90;;;;;;4915055;29;21056;-74